Time,TemperatureF,DewpointF,PressureIn,WindDirection,WindDirectionDegrees,WindSpeedMPH,WindSpeedGustMPH,Humidity,HourlyPrecipIn,Conditions,Clouds,dailyrainin,SoftwareType,DateUTC
2013-07-22 00:00:00,65.0,64.0,30.02,South,169,0.0,-999.0,95,-99.99,,,0.00,weatherlink.com 1.10,2013-07-22 04:00:00,
2013-07-22 00:15:00,64.8,63.0,30.02,South,169,0.0,-999.0,95,-99.99,,,0.00,weatherlink.com 1.10,2013-07-22 04:15:00,
2013-07-22 00:30:00,64.5,63.0,30.02,South,169,0.0,-999.0,95,-99.99,,,0.00,weatherlink.com 1.10,2013-07-22 04:30:00,
2013-07-22 00:45:00,64.4,63.0,30.02,South,169,0.0,-999.0,96,-99.99,,,0.00,weatherlink.com 1.10,2013-07-22 04:45:00,
2013-07-22 01:00:00,64.3,63.0,30.01,South,169,0.0,-999.0,96,-99.99,,,0.00,weatherlink.com 1.10,2013-07-22 05:00:00,
2013-07-22 01:15:00,64.2,63.0,30.01,South,169,0.0,-999.0,96,-99.99,,,0.00,weatherlink.com 1.10,2013-07-22 05:15:00,
2013-07-22 01:30:00,64.0,63.0,30.01,South,169,0.0,-999.0,96,-99.99,,,0.00,weatherlink.com 1.10,2013-07-22 05:30:00,
2013-07-22 01:45:00,63.7,63.0,30.01,South,169,0.0,-999.0,96,-99.99,,,0.00,weatherlink.com 1.10,2013-07-22 05:45:00,
2013-07-22 02:00:00,63.4,62.0,30.01,South,169,0.0,-999.0,96,-99.99,,,0.00,weatherlink.com 1.10,2013-07-22 06:00:00,
2013-07-22 02:15:00,63.1,62.0,30.00,South,169,0.0,-999.0,96,-99.99,,,0.00,weatherlink.com 1.10,2013-07-22 06:15:00,
2013-07-22 02:30:00,62.8,62.0,30.01,South,169,0.0,-999.0,96,-99.99,,,0.00,weatherlink.com 1.10,2013-07-22 06:30:00,
2013-07-22 02:45:00,62.6,62.0,30.00,South,169,0.0,-999.0,96,-99.99,,,0.00,weatherlink.com 1.10,2013-07-22 06:45:00,
2013-07-22 03:00:00,62.6,62.0,30.00,South,169,0.0,-999.0,97,-99.99,,,0.00,weatherlink.com 1.10,2013-07-22 07:00:00,
2013-07-22 03:15:00,62.5,62.0,30.00,South,169,0.0,-999.0,97,-99.99,,,0.00,weatherlink.com 1.10,2013-07-22 07:15:00,
2013-07-22 03:30:00,62.2,61.0,30.00,South,169,0.0,-999.0,96,-99.99,,,0.00,weatherlink.com 1.10,2013-07-22 07:30:00,
2013-07-22 03:45:00,62.0,61.0,30.00,South,169,0.0,-999.0,96,-99.99,,,0.00,weatherlink.com 1.10,2013-07-22 07:45:00,
2013-07-22 04:00:00,61.6,61.0,30.00,South,169,0.0,-999.0,96,-99.99,,,0.00,weatherlink.com 1.10,2013-07-22 08:00:00,
2013-07-22 04:16:00,61.3,60.0,30.00,South,169,0.0,-999.0,96,-99.99,,,0.00,weatherlink.com 1.10,2013-07-22 08:16:00,
2013-07-22 04:31:00,61.1,60.0,30.01,South,169,0.0,-999.0,96,-99.99,,,0.00,weatherlink.com 1.10,2013-07-22 08:31:00,
2013-07-22 04:46:00,61.0,60.0,30.01,South,169,0.0,-999.0,97,-99.99,,,0.00,weatherlink.com 1.10,2013-07-22 08:46:00,
2013-07-22 05:01:00,60.9,60.0,30.01,South,169,0.0,-999.0,97,-99.99,,,0.00,weatherlink.com 1.10,2013-07-22 09:01:00,
2013-07-22 05:16:00,61.1,60.0,30.02,South,169,0.0,-999.0,97,-99.99,,,0.00,weatherlink.com 1.10,2013-07-22 09:16:00,
2013-07-22 05:31:00,61.3,61.0,30.02,South,169,0.0,-999.0,97,-99.99,,,0.00,weatherlink.com 1.10,2013-07-22 09:31:00,
2013-07-22 05:46:00,61.7,61.0,30.02,South,169,0.0,-999.0,98,-99.99,,,0.00,weatherlink.com 1.10,2013-07-22 09:46:00,
2013-07-22 06:01:00,62.3,62.0,30.02,South,169,0.0,-999.0,98,-99.99,,,0.00,weatherlink.com 1.10,2013-07-22 10:01:00,
2013-07-22 06:16:00,62.7,62.0,30.02,South,169,0.0,-999.0,98,-99.99,,,0.00,weatherlink.com 1.10,2013-07-22 10:16:00,
2013-07-22 06:31:00,63.3,63.0,30.02,South,169,0.0,-999.0,98,-99.99,,,0.00,weatherlink.com 1.10,2013-07-22 10:31:00,
2013-07-22 06:46:00,63.8,63.0,30.03,South,169,0.0,-999.0,98,-99.99,,,0.00,weatherlink.com 1.10,2013-07-22 10:46:00,
2013-07-22 07:01:00,64.3,64.0,30.02,South,169,0.0,-999.0,98,-99.99,,,0.00,weatherlink.com 1.10,2013-07-22 11:01:00,
2013-07-22 07:16:00,64.7,64.0,30.03,South,169,0.0,-999.0,98,-99.99,,,0.00,weatherlink.com 1.10,2013-07-22 11:16:00,
2013-07-22 07:31:00,65.2,65.0,30.02,South,169,0.0,-999.0,98,-99.99,,,0.00,weatherlink.com 1.10,2013-07-22 11:31:00,
2013-07-22 07:46:00,65.4,65.0,30.03,South,169,0.0,-999.0,98,-99.99,,,0.00,weatherlink.com 1.10,2013-07-22 11:46:00,
2013-07-22 08:01:00,65.8,65.0,30.03,South,169,0.0,-999.0,98,-99.99,,,0.00,weatherlink.com 1.10,2013-07-22 12:01:00,
2013-07-22 08:16:00,66.2,66.0,30.03,South,169,0.0,-999.0,98,-99.99,,,0.00,weatherlink.com 1.10,2013-07-22 12:16:00,
2013-07-22 08:31:00,66.5,66.0,30.03,South,169,0.0,-999.0,98,-99.99,,,0.00,weatherlink.com 1.10,2013-07-22 12:31:00,
2013-07-22 08:46:00,66.9,66.0,30.03,South,169,0.0,-999.0,97,-99.99,,,0.00,weatherlink.com 1.10,2013-07-22 12:46:00,
2013-07-22 09:01:00,67.2,66.0,30.04,South,169,0.0,-999.0,97,-99.99,,,0.00,weatherlink.com 1.10,2013-07-22 13:01:00,
2013-07-22 09:16:00,67.4,66.0,30.04,South,169,0.0,-999.0,96,-99.99,,,0.00,weatherlink.com 1.10,2013-07-22 13:16:00,
2013-07-22 09:31:00,67.7,67.0,30.05,South,169,0.0,-999.0,96,-99.99,,,0.00,weatherlink.com 1.10,2013-07-22 13:31:00,
2013-07-22 09:46:00,67.9,67.0,30.05,South,169,0.0,-999.0,95,-99.99,,,0.00,weatherlink.com 1.10,2013-07-22 13:46:00,
2013-07-22 10:01:00,68.3,67.0,30.05,South,169,0.0,-999.0,95,-99.99,,,0.00,weatherlink.com 1.10,2013-07-22 14:01:00,
2013-07-22 10:16:00,69.1,68.0,30.05,South,169,0.0,-999.0,95,-99.99,,,0.00,weatherlink.com 1.10,2013-07-22 14:16:00,
2013-07-22 10:31:00,69.7,68.0,30.05,South,169,0.0,-999.0,94,-99.99,,,0.00,weatherlink.com 1.10,2013-07-22 14:31:00,
2013-07-22 10:46:00,69.9,68.0,30.05,South,169,0.0,-999.0,93,-99.99,,,0.00,weatherlink.com 1.10,2013-07-22 14:46:00,
2013-07-22 11:01:00,70.1,68.0,30.05,South,169,0.0,-999.0,92,-99.99,,,0.00,weatherlink.com 1.10,2013-07-22 15:01:00,
2013-07-22 11:31:00,71.5,69.0,30.04,SSW,199,0.0,-999.0,92,-99.99,,,0.00,weatherlink.com 1.10,2013-07-22 15:31:00,
2013-07-22 11:46:00,72.4,69.0,30.04,SSW,198,0.0,-999.0,89,-99.99,,,0.00,weatherlink.com 1.10,2013-07-22 15:46:00,
2013-07-22 12:01:00,73.6,70.0,30.03,SSW,197,0.0,-999.0,88,-99.99,,,0.00,weatherlink.com 1.10,2013-07-22 16:01:00,
2013-07-22 12:16:00,75.0,70.0,30.02,SSW,197,0.0,-999.0,84,-99.99,,,0.00,weatherlink.com 1.10,2013-07-22 16:16:00,
2013-07-22 12:31:00,75.6,70.0,30.02,SSE,152,0.0,-999.0,82,-99.99,,,0.00,weatherlink.com 1.10,2013-07-22 16:31:00,
2013-07-22 12:46:00,77.7,70.0,30.02,SSW,200,0.0,-999.0,78,-99.99,,,0.00,weatherlink.com 1.10,2013-07-22 16:46:00,
2013-07-22 13:01:00,79.6,72.0,30.01,SSW,198,0.0,-999.0,78,-99.99,,,0.00,weatherlink.com 1.10,2013-07-22 17:01:00,
2013-07-22 13:17:00,80.8,71.0,30.00,ENE,76,2.0,-999.0,73,-99.99,,,0.00,weatherlink.com 1.10,2013-07-22 17:17:00,
2013-07-22 13:32:00,80.0,70.0,30.00,SW,223,0.0,-999.0,72,-99.99,,,0.00,weatherlink.com 1.10,2013-07-22 17:32:00,
2013-07-22 13:47:00,80.7,72.0,29.99,SSE,159,0.0,-999.0,75,-99.99,,,0.00,weatherlink.com 1.10,2013-07-22 17:47:00,
2013-07-22 14:02:00,80.6,71.0,29.98,SSE,159,1.0,-999.0,72,-99.99,,,0.00,weatherlink.com 1.10,2013-07-22 18:02:00,
2013-07-22 14:17:00,80.7,72.0,29.98,SSE,159,0.0,-999.0,74,-99.99,,,0.00,weatherlink.com 1.10,2013-07-22 18:17:00,
2013-07-22 14:47:00,82.4,71.0,29.97,SSE,168,0.0,-999.0,69,-99.99,,,0.00,weatherlink.com 1.10,2013-07-22 18:47:00,
2013-07-22 15:02:00,82.7,72.0,29.97,South,190,0.0,-999.0,70,-99.99,,,0.00,weatherlink.com 1.10,2013-07-22 19:02:00,
2013-07-22 15:17:00,83.0,72.0,29.96,South,171,0.0,-999.0,69,-99.99,,,0.00,weatherlink.com 1.10,2013-07-22 19:17:00,
2013-07-22 15:32:00,82.0,70.0,29.96,SSE,163,0.0,-999.0,68,-99.99,,,0.00,weatherlink.com 1.10,2013-07-22 19:32:00,
2013-07-22 16:17:00,82.0,71.0,29.95,SW,232,0.0,-999.0,69,-99.99,,,0.00,weatherlink.com 1.10,2013-07-22 20:17:00,
2013-07-22 16:32:00,81.8,71.0,29.94,SSE,163,0.0,-999.0,70,-99.99,,,0.00,weatherlink.com 1.10,2013-07-22 20:32:00,
2013-07-22 16:47:00,81.9,71.0,29.94,SE,143,0.0,-999.0,69,-99.99,,,0.00,weatherlink.com 1.10,2013-07-22 20:47:00,
2013-07-22 17:02:00,80.3,70.0,29.94,West,272,2.0,-999.0,71,-99.99,,,0.00,weatherlink.com 1.10,2013-07-22 21:02:00,
2013-07-22 17:17:00,78.9,70.0,29.94,SW,228,0.0,-999.0,74,-99.99,,,0.00,weatherlink.com 1.10,2013-07-22 21:17:00,
2013-07-22 17:32:00,78.7,71.0,29.94,South,171,0.0,-999.0,76,-99.99,,,0.00,weatherlink.com 1.10,2013-07-22 21:32:00,
2013-07-22 17:47:00,78.9,69.0,29.94,NNE,15,0.0,-999.0,72,-99.99,,,0.00,weatherlink.com 1.10,2013-07-22 21:47:00,
2013-07-22 18:02:00,78.0,69.0,29.93,SE,145,1.0,-999.0,74,-99.99,,,0.00,weatherlink.com 1.10,2013-07-22 22:02:00,
2013-07-22 18:17:00,77.6,69.0,29.93,South,180,2.0,-999.0,74,-99.99,,,0.00,weatherlink.com 1.10,2013-07-22 22:17:00,
2013-07-22 18:32:00,76.9,69.0,29.93,South,179,0.0,-999.0,77,-99.99,,,0.00,weatherlink.com 1.10,2013-07-22 22:32:00,
2013-07-22 18:47:00,76.1,69.0,29.94,South,187,0.0,-999.0,79,-99.99,,,0.00,weatherlink.com 1.10,2013-07-22 22:47:00,
2013-07-22 19:02:00,75.5,69.0,29.94,SE,133,0.0,-999.0,79,-99.99,,,0.00,weatherlink.com 1.10,2013-07-22 23:02:00,
2013-07-22 19:17:00,74.7,69.0,29.94,ENE,67,0.0,-999.0,81,-99.99,,,0.00,weatherlink.com 1.10,2013-07-22 23:17:00,
2013-07-22 19:32:00,73.9,68.0,29.94,ESE,111,0.0,-999.0,82,-99.99,,,0.00,weatherlink.com 1.10,2013-07-22 23:32:00,
2013-07-22 19:47:00,73.3,68.0,29.93,ESE,115,0.0,-999.0,83,-99.99,,,0.00,weatherlink.com 1.10,2013-07-22 23:47:00,
2013-07-22 20:02:00,72.8,68.0,29.94,ESE,115,0.0,-999.0,84,-99.99,,,0.00,weatherlink.com 1.10,2013-07-23 00:02:00,
2013-07-22 20:17:00,72.3,68.0,29.93,SSE,161,0.0,-999.0,86,-99.99,,,0.00,weatherlink.com 1.10,2013-07-23 00:17:00,
2013-07-22 20:32:00,72.2,68.0,29.94,SSE,161,0.0,-999.0,86,-99.99,,,0.00,weatherlink.com 1.10,2013-07-23 00:32:00,
2013-07-22 20:47:00,71.7,67.0,29.94,South,175,0.0,-999.0,85,-99.99,,,0.00,weatherlink.com 1.10,2013-07-23 00:47:00,
2013-07-22 21:02:00,71.4,66.0,29.94,South,180,0.0,-999.0,84,-99.99,,,0.00,weatherlink.com 1.10,2013-07-23 01:02:00,
2013-07-22 21:17:00,71.2,66.0,29.94,South,186,0.0,-999.0,84,-99.99,,,0.00,weatherlink.com 1.10,2013-07-23 01:17:00,
2013-07-22 21:32:00,70.9,66.0,29.95,SSE,168,0.0,-999.0,85,-99.99,,,0.00,weatherlink.com 1.10,2013-07-23 01:32:00,
2013-07-22 21:47:00,70.8,67.0,29.94,SSE,168,0.0,-999.0,86,-99.99,,,0.00,weatherlink.com 1.10,2013-07-23 01:47:00,
2013-07-22 22:02:00,70.5,66.0,29.94,SSE,168,0.0,-999.0,86,-99.99,,,0.00,weatherlink.com 1.10,2013-07-23 02:02:00,
2013-07-22 22:17:00,70.0,66.0,29.93,SSE,168,0.0,-999.0,86,-99.99,,,0.00,weatherlink.com 1.10,2013-07-23 02:17:00,
2013-07-22 22:32:00,69.7,66.0,29.93,SSE,168,0.0,-999.0,87,-99.99,,,0.00,weatherlink.com 1.10,2013-07-23 02:32:00,
2013-07-22 22:47:00,69.5,66.0,29.93,SSE,168,0.0,-999.0,89,-99.99,,,0.00,weatherlink.com 1.10,2013-07-23 02:47:00,
2013-07-22 23:02:00,69.2,66.0,29.93,South,169,0.0,-999.0,89,-99.99,,,0.00,weatherlink.com 1.10,2013-07-23 03:02:00,
2013-07-22 23:17:00,69.0,66.0,29.93,South,169,0.0,-999.0,89,-99.99,,,0.00,weatherlink.com 1.10,2013-07-23 03:17:00,
2013-07-22 23:32:00,68.9,66.0,29.92,South,169,0.0,-999.0,90,-99.99,,,0.00,weatherlink.com 1.10,2013-07-23 03:32:00,
2013-07-22 23:47:00,68.7,66.0,29.91,South,169,0.0,-999.0,90,-99.99,,,0.00,weatherlink.com 1.10,2013-07-23 03:47:00,